Caddo, Oklahoma
Current Conditions -  °F | °C
As of 6:35 AM on Sunday 21 Dec 2014 (Local Time) from KDUA Reporting Station
Haze Haze  
Wind Chill: 40°   Ceiling: 3600
Heat Index: 45°   Visibility: 5mi
Dew Point: 45°   Wind: 8mph
Humidity: 100%   Direction: 150°SSE
Pressure: 30.1"   Gusts: NA
Location:  34.13°N, 96.26°W
Report Text: KDUA 211235Z AUTO 15007KT 5SM BR SCT006 OVC036 07/07 A3010 RMK AO2
Loading
Personal Weather Stations






























Interactive Weather Map New forecast layout! Learn more

10-Day Weather Forecast

Advertisements
Track Severe Weather on mobile